createdAt,value
2018-10-21T00:01:31.555Z,46.80
2018-10-21T00:04:05.162Z,45.67
2018-10-21T00:06:38.698Z,46.90
2018-10-21T00:09:12.992Z,46.53
2018-10-21T00:11:46.390Z,45.80
2018-10-21T00:14:19.806Z,45.70
2018-10-21T00:16:53.227Z,45.07
2018-10-21T00:19:26.719Z,45.30
2018-10-21T00:22:00.132Z,44.40
2018-10-21T00:24:33.558Z,45.37
2018-10-21T00:27:07.269Z,44.73
2018-10-21T00:29:40.719Z,45.70
2018-10-21T00:32:14.124Z,45.23
2018-10-21T00:34:47.548Z,44.53
2018-10-21T00:37:20.971Z,44.97
2018-10-21T00:39:54.417Z,45.67
2018-10-21T00:42:27.879Z,45.80
2018-10-21T00:45:01.465Z,45.23
2018-10-21T00:47:34.851Z,45.33
2018-10-21T00:50:09.650Z,44.10
2018-10-21T00:52:43.030Z,45.60
2018-10-21T00:55:16.440Z,46.63
2018-10-21T00:57:49.840Z,45.70
2018-10-21T01:00:23.306Z,44.63
2018-10-21T01:02:57.105Z,44.90
2018-10-21T01:05:30.497Z,43.63
2018-10-21T01:08:04.031Z,43.80
2018-10-21T01:10:37.464Z,43.27
2018-10-21T01:13:10.859Z,43.77
2018-10-21T01:15:44.391Z,42.50
2018-10-21T01:18:17.786Z,41.30
2018-10-21T01:20:51.199Z,43.13
2018-10-21T01:23:24.588Z,42.83
2018-10-21T01:25:57.999Z,41.03
2018-10-21T01:28:31.388Z,42.20
2018-10-21T01:31:05.051Z,42.80
2018-10-21T01:33:38.444Z,43.50
2018-10-21T01:36:11.930Z,42.80
2018-10-21T01:38:45.326Z,44.60
2018-10-21T01:41:18.748Z,43.57
2018-10-21T01:43:52.149Z,45.30
2018-10-21T01:46:25.563Z,44.37
2018-10-21T01:48:58.979Z,44.53
2018-10-21T01:51:32.414Z,45.27
2018-10-21T01:54:05.939Z,42.30
2018-10-21T01:56:39.373Z,42.73
2018-10-21T01:59:12.783Z,43.53
2018-10-21T02:01:46.206Z,41.93
2018-10-21T02:04:19.648Z,42.67
2018-10-21T02:06:53.095Z,43.63
2018-10-21T02:09:26.495Z,43.47
2018-10-21T02:11:59.915Z,42.10
2018-10-21T02:14:33.318Z,42.03
2018-10-21T02:17:06.767Z,41.67
2018-10-21T02:19:40.170Z,42.07
2018-10-21T02:22:13.586Z,41.47
2018-10-21T02:24:47.071Z,41.07
2018-10-21T02:27:20.580Z,40.43
2018-10-21T02:29:53.983Z,42.53
2018-10-21T02:32:27.418Z,41.50
2018-10-21T02:35:00.831Z,41.83
2018-10-21T02:37:34.287Z,42.53
2018-10-21T02:40:17.809Z,41.67
2018-10-21T02:42:51.252Z,41.93
2018-10-21T02:45:24.633Z,41.77
2018-10-21T02:47:58.021Z,40.73
2018-10-21T02:50:31.428Z,41.57
2018-10-21T02:53:04.855Z,41.03
2018-10-21T02:55:38.223Z,43.10
2018-10-21T02:58:11.624Z,42.20
2018-10-21T03:00:45.067Z,41.73
2018-10-21T03:03:18.551Z,40.33
2018-10-21T03:05:51.857Z,42.13
2018-10-21T03:08:25.247Z,41.30
2018-10-21T03:10:59.054Z,42.43
2018-10-21T03:13:32.856Z,41.63
2018-10-21T03:16:06.308Z,40.73
2018-10-21T03:18:39.709Z,40.37
2018-10-21T03:21:13.191Z,40.50
2018-10-21T03:23:46.498Z,40.67
2018-10-21T03:26:19.880Z,41.03
2018-10-21T03:28:53.291Z,41.30
2018-10-21T03:31:26.659Z,42.53
2018-10-21T03:34:01.227Z,41.47
2018-10-21T03:36:34.532Z,41.67
2018-10-21T03:39:09.094Z,41.60
2018-10-21T03:41:42.498Z,42.30
2018-10-21T03:44:15.871Z,41.00
2018-10-21T03:46:49.271Z,40.27
2018-10-21T03:49:22.656Z,41.90
2018-10-21T03:51:56.092Z,40.33
2018-10-21T03:54:30.282Z,40.70
2018-10-21T03:57:04.768Z,41.43
2018-10-21T03:59:38.136Z,41.13
2018-10-21T04:02:11.536Z,40.97
2018-10-21T04:04:44.911Z,41.03
2018-10-21T04:07:18.307Z,41.13
2018-10-21T04:09:52.044Z,40.33
2018-10-21T04:12:25.433Z,41.07
2018-10-21T04:14:58.804Z,40.13
2018-10-21T04:17:32.312Z,39.53
2018-10-21T04:20:06.547Z,39.73
2018-10-21T04:22:45.444Z,39.97
2018-10-21T04:25:19.307Z,39.77
2018-10-21T04:27:53.651Z,40.57
2018-10-21T04:30:28.088Z,39.73
2018-10-21T04:33:23.769Z,40.60
2018-10-21T04:35:57.144Z,40.53
2018-10-21T04:38:41.919Z,40.53
2018-10-21T04:41:17.393Z,41.30
2018-10-21T04:43:50.786Z,40.33
2018-10-21T04:46:24.170Z,40.37
2018-10-21T04:48:57.579Z,40.23
2018-10-21T04:51:31.019Z,40.57
2018-10-21T04:54:04.447Z,41.50
2018-10-21T04:56:37.827Z,41.17
2018-10-21T04:59:11.219Z,41.07
2018-10-21T05:01:44.691Z,40.70
2018-10-21T05:04:18.113Z,39.17
2018-10-21T05:06:51.556Z,40.23
2018-10-21T05:09:25.567Z,39.57
2018-10-21T05:11:58.939Z,40.37
2018-10-21T05:14:32.334Z,40.10
2018-10-21T05:17:05.868Z,41.00
2018-10-21T05:19:39.252Z,41.67
2018-10-21T05:22:12.701Z,40.00
2018-10-21T05:24:46.103Z,45.27
2018-10-21T05:27:19.480Z,44.70
2018-10-21T05:29:52.867Z,43.17
2018-10-21T05:32:26.241Z,47.80
2018-10-21T05:34:59.632Z,47.10
2018-10-21T05:37:33.008Z,47.73
2018-10-21T05:40:08.901Z,46.87
2018-10-21T05:42:42.709Z,45.00
2018-10-21T05:45:16.147Z,45.13
2018-10-21T05:47:49.527Z,45.73
2018-10-21T05:50:22.954Z,46.53
2018-10-21T05:53:01.113Z,45.73
2018-10-21T05:55:34.516Z,45.60
2018-10-21T05:58:07.980Z,44.17
2018-10-21T06:00:41.356Z,43.03
2018-10-21T06:03:14.758Z,43.63
2018-10-21T06:05:49.092Z,43.00
2018-10-21T06:08:22.527Z,44.97
2018-10-21T06:10:55.900Z,45.23
2018-10-21T06:13:29.360Z,44.50
2018-10-21T06:16:02.781Z,43.23
2018-10-21T06:18:36.160Z,41.77
2018-10-21T06:21:09.532Z,40.37
2018-10-21T06:23:42.986Z,39.03
2018-10-21T06:26:16.328Z,40.33
2018-10-21T06:28:49.731Z,41.43
2018-10-21T06:31:23.179Z,39.13
2018-10-21T06:33:56.567Z,39.90
2018-10-21T06:36:29.941Z,41.23
2018-10-21T06:39:04.239Z,39.80
2018-10-21T06:41:37.587Z,41.20
2018-10-21T06:44:10.986Z,40.27
2018-10-21T06:46:44.399Z,39.70
2018-10-21T06:49:17.839Z,39.47
2018-10-21T06:51:51.248Z,39.63
2018-10-21T06:54:24.632Z,41.67
2018-10-21T06:56:58.067Z,39.70
2018-10-21T06:59:31.422Z,39.83
2018-10-21T07:02:05.158Z,40.50
2018-10-21T07:04:39.710Z,40.10
2018-10-21T07:07:13.001Z,40.07
2018-10-21T07:09:46.387Z,40.07
2018-10-21T07:12:19.856Z,39.73
2018-10-21T07:14:53.248Z,38.97
2018-10-21T07:17:28.714Z,40.00
2018-10-21T07:20:02.114Z,39.63
2018-10-21T07:22:35.482Z,40.53
2018-10-21T07:25:09.720Z,38.87
2018-10-21T07:27:43.091Z,40.00
2018-10-21T07:30:16.484Z,41.27
2018-10-21T07:32:49.859Z,39.10
2018-10-21T07:35:23.308Z,41.00
2018-10-21T07:37:56.671Z,41.60
2018-10-21T07:40:30.107Z,41.00
2018-10-21T07:43:03.483Z,41.20
2018-10-21T07:45:36.880Z,44.50
2018-10-21T07:48:10.248Z,42.57
2018-10-21T07:50:43.720Z,40.67
2018-10-21T07:53:17.107Z,40.20
2018-10-21T07:55:50.588Z,40.87
2018-10-21T07:58:23.920Z,39.60
2018-10-21T08:00:57.505Z,39.67
2018-10-21T08:03:30.867Z,40.37
2018-10-21T08:06:25.367Z,41.10
2018-10-21T08:08:58.792Z,39.97
2018-10-21T08:11:32.191Z,41.13
2018-10-21T08:14:05.613Z,41.10
2018-10-21T08:16:39.009Z,40.43
2018-10-21T08:19:12.424Z,41.67
2018-10-21T08:21:45.808Z,40.33
2018-10-21T08:24:19.219Z,42.40
2018-10-21T08:26:52.625Z,41.03
2018-10-21T08:29:26.019Z,40.50
2018-10-21T08:31:59.383Z,41.20
2018-10-21T08:34:33.891Z,42.37
2018-10-21T08:37:07.269Z,42.83
2018-10-21T08:39:40.692Z,42.60
2018-10-21T08:42:14.068Z,43.27
2018-10-21T08:44:47.486Z,42.90
2018-10-21T08:47:20.880Z,43.10
2018-10-21T08:49:54.315Z,42.73
2018-10-21T08:52:27.727Z,44.17
2018-10-21T08:55:01.134Z,45.40
2018-10-21T08:57:34.511Z,42.60
2018-10-21T09:00:11.911Z,42.23
2018-10-21T09:02:45.576Z,43.53
2018-10-21T09:05:19.536Z,43.43
2018-10-21T09:07:52.912Z,42.77
2018-10-21T09:10:26.344Z,43.93
2018-10-21T09:12:59.720Z,43.10
2018-10-21T09:15:33.139Z,40.83
2018-10-21T09:18:06.528Z,41.80
2018-10-21T09:20:39.987Z,42.73
2018-10-21T09:23:13.379Z,41.83
2018-10-21T09:25:46.766Z,43.17
2018-10-21T09:28:20.146Z,43.90
2018-10-21T09:30:53.583Z,43.70
2018-10-21T09:33:27.136Z,45.00
2018-10-21T09:36:00.467Z,44.17
2018-10-21T09:38:33.871Z,44.47
2018-10-21T09:41:07.286Z,43.60
2018-10-21T09:43:40.730Z,44.60
2018-10-21T09:46:15.311Z,44.13
2018-10-21T09:48:48.640Z,43.97
2018-10-21T09:51:22.036Z,44.30
2018-10-21T09:53:55.416Z,44.37
2018-10-21T09:56:28.816Z,44.73
2018-10-21T09:59:02.195Z,45.20
2018-10-21T10:01:41.010Z,45.57
2018-10-21T10:04:16.691Z,46.93
2018-10-21T10:06:50.080Z,44.43
2018-10-21T10:09:23.564Z,45.67
2018-10-21T10:11:57.008Z,47.40
2018-10-21T10:14:30.448Z,45.67
2018-10-21T10:17:03.885Z,44.70
2018-10-21T10:19:37.254Z,44.07
2018-10-21T10:22:10.875Z,44.80
2018-10-21T10:24:44.268Z,45.10
2018-10-21T10:27:17.765Z,42.43
2018-10-21T10:29:51.293Z,44.33
2018-10-21T10:32:24.817Z,46.37
2018-10-21T10:34:58.293Z,46.23
2018-10-21T10:37:32.481Z,45.30
2018-10-21T10:40:06.636Z,43.57
2018-10-21T10:42:40.154Z,42.80
2018-10-21T10:45:13.544Z,43.50
2018-10-21T10:47:47.028Z,42.60
2018-10-21T10:50:20.500Z,41.43
2018-10-21T10:52:53.980Z,40.53
2018-10-21T10:55:32.840Z,39.63
2018-10-21T10:58:06.417Z,39.90
2018-10-21T11:00:39.747Z,39.83
2018-10-21T11:03:13.132Z,39.67
2018-10-21T11:05:46.532Z,39.07
2018-10-21T11:08:20.185Z,38.63
2018-10-21T11:10:53.636Z,38.87
2018-10-21T11:13:28.211Z,38.77
2018-10-21T11:16:01.771Z,37.40
2018-10-21T11:18:35.260Z,38.57
2018-10-21T11:21:08.672Z,37.97
2018-10-21T11:23:42.244Z,37.17
2018-10-21T11:26:15.651Z,38.70
2018-10-21T11:28:49.032Z,38.47
2018-10-21T11:31:22.436Z,38.23
2018-10-21T11:33:55.903Z,38.67
2018-10-21T11:36:29.345Z,38.17
2018-10-21T11:39:03.985Z,38.30
2018-10-21T11:41:37.485Z,39.03
2018-10-21T11:44:10.879Z,39.47
2018-10-21T11:46:44.287Z,38.13
2018-10-21T11:49:17.772Z,39.13
2018-10-21T11:51:51.192Z,37.73
2018-10-21T11:54:24.663Z,37.50
2018-10-21T11:56:58.248Z,38.87
2018-10-21T11:59:31.664Z,37.00
2018-10-21T12:02:05.207Z,38.13
2018-10-21T12:04:38.584Z,38.30
2018-10-21T12:07:12.080Z,39.60
2018-10-21T12:09:46.523Z,39.13
2018-10-21T12:12:19.932Z,38.83
2018-10-21T12:14:53.315Z,38.90
2018-10-21T12:17:26.871Z,39.27
2018-10-21T12:20:00.310Z,38.20
2018-10-21T12:22:33.818Z,38.07
2018-10-21T12:25:07.342Z,38.57
2018-10-21T12:27:40.737Z,37.43
2018-10-21T12:30:14.119Z,37.53
2018-10-21T12:32:47.516Z,37.37
2018-10-21T12:35:20.908Z,36.73
2018-10-21T12:37:54.306Z,37.17
2018-10-21T12:40:27.691Z,36.87
2018-10-21T12:43:01.123Z,38.33
2018-10-21T12:45:34.594Z,37.57
2018-10-21T12:48:08.000Z,37.35
2018-10-21T12:50:41.439Z,37.57
2018-10-21T12:53:15.026Z,36.17
2018-10-21T12:55:50.528Z,37.27
2018-10-21T12:58:24.188Z,36.37
2018-10-21T13:00:57.613Z,35.80
2018-10-21T13:03:30.996Z,35.30
2018-10-21T13:06:04.453Z,35.70
2018-10-21T13:08:38.980Z,35.00
2018-10-21T13:11:12.579Z,34.83
2018-10-21T13:13:46.044Z,34.10
2018-10-21T13:16:19.450Z,35.95
2018-10-21T13:18:53.739Z,35.38
2018-10-21T13:21:27.159Z,35.13
2018-10-21T13:24:00.543Z,34.92
2018-10-21T13:26:33.964Z,34.08
2018-10-21T13:29:07.361Z,34.20
2018-10-21T13:31:40.763Z,34.38
2018-10-21T13:34:14.193Z,33.33
2018-10-21T13:36:47.583Z,33.45
2018-10-21T13:39:21.041Z,33.65
2018-10-21T13:41:54.434Z,33.35
2018-10-21T13:44:27.807Z,33.60
2018-10-21T13:47:01.211Z,33.70
2018-10-21T13:49:34.600Z,33.95
2018-10-21T13:52:08.190Z,33.30
2018-10-21T13:54:41.544Z,33.28
2018-10-21T13:57:15.508Z,33.28
2018-10-21T13:59:48.887Z,32.63
2018-10-21T14:02:22.807Z,32.38
2018-10-21T14:04:56.209Z,32.85
2018-10-21T14:07:29.655Z,31.70
2018-10-21T14:10:03.123Z,32.38
2018-10-21T14:12:36.547Z,31.60
2018-10-21T14:15:09.989Z,31.80
2018-10-21T14:17:43.351Z,31.82
2018-10-21T14:20:16.746Z,31.30
2018-10-21T14:22:50.139Z,32.45
2018-10-21T14:25:23.592Z,31.15
2018-10-21T14:27:57.027Z,32.42
2018-10-21T14:30:30.583Z,31.85
2018-10-21T14:33:03.966Z,31.17
2018-10-21T14:35:37.335Z,31.42
2018-10-21T14:38:10.804Z,31.35
2018-10-21T14:40:44.644Z,32.13
2018-10-21T14:43:18.124Z,33.48
2018-10-21T14:45:51.691Z,31.25
2018-10-21T14:48:25.048Z,30.23
2018-10-21T14:50:58.439Z,31.33
2018-10-21T14:53:31.851Z,31.30
2018-10-21T14:56:05.823Z,30.27
2018-10-21T14:58:39.219Z,30.77
2018-10-21T15:01:12.690Z,30.72
2018-10-21T15:03:46.141Z,30.43
2018-10-21T15:06:19.531Z,30.23
2018-10-21T15:08:52.932Z,30.27
2018-10-21T15:11:26.387Z,30.17
2018-10-21T15:13:59.820Z,30.60
2018-10-21T15:16:33.237Z,30.75
2018-10-21T15:19:06.805Z,29.80
2018-10-21T15:21:40.212Z,29.95
2018-10-21T15:24:13.681Z,30.25
2018-10-21T15:26:47.164Z,30.17
2018-10-21T15:29:20.588Z,30.32
2018-10-21T15:31:54.178Z,30.37
2018-10-21T15:34:27.586Z,30.48
2018-10-21T15:37:00.981Z,30.52
2018-10-21T15:39:34.386Z,29.77
2018-10-21T15:42:07.777Z,30.37
2018-10-21T15:44:42.200Z,30.40
2018-10-21T15:47:15.593Z,30.05
2018-10-21T15:49:49.023Z,30.60
2018-10-21T15:52:22.465Z,30.60
2018-10-21T15:54:55.816Z,30.37
2018-10-21T15:57:29.195Z,30.97
2018-10-21T16:00:02.601Z,29.85
2018-10-21T16:02:36.216Z,30.72
2018-10-21T16:05:10.260Z,30.32
2018-10-21T16:07:43.635Z,31.10
2018-10-21T16:10:17.128Z,30.15
2018-10-21T16:12:51.472Z,31.10
2018-10-21T16:15:24.863Z,30.95
2018-10-21T16:17:58.231Z,31.25
2018-10-21T16:20:31.633Z,31.25
2018-10-21T16:23:06.091Z,31.35
2018-10-21T16:25:39.567Z,31.10
2018-10-21T16:28:12.886Z,30.70
2018-10-21T16:30:46.423Z,31.12
2018-10-21T16:33:20.015Z,31.73
2018-10-21T16:35:53.489Z,31.75
2018-10-21T16:38:27.039Z,30.95
2018-10-21T16:41:00.411Z,31.70
2018-10-21T16:43:33.820Z,31.07
2018-10-21T16:46:07.274Z,30.90
2018-10-21T16:48:40.689Z,30.90
2018-10-21T16:51:14.206Z,31.07
2018-10-21T16:53:47.604Z,30.95
2018-10-21T16:56:20.987Z,31.82
2018-10-21T16:58:54.447Z,31.40
2018-10-21T17:01:27.843Z,30.92
2018-10-21T17:04:01.271Z,31.45
2018-10-21T17:06:34.657Z,31.02
2018-10-21T17:09:10.562Z,30.32
2018-10-21T17:11:44.396Z,30.68
2018-10-21T17:14:17.804Z,30.25
2018-10-21T17:16:51.240Z,30.02
2018-10-21T17:19:24.626Z,30.10
2018-10-21T17:21:58.079Z,29.60
2018-10-21T17:24:31.512Z,29.15
2018-10-21T17:27:05.168Z,29.45
2018-10-21T17:29:38.648Z,29.50
2018-10-21T17:32:13.127Z,29.90
2018-10-21T17:34:46.520Z,29.90
2018-10-21T17:37:19.888Z,29.32
2018-10-21T17:39:53.298Z,29.42
2018-10-21T17:42:26.721Z,29.85
2018-10-21T17:45:00.292Z,29.42
2018-10-21T17:47:33.661Z,29.55
2018-10-21T17:50:08.264Z,28.73
2018-10-21T17:52:42.073Z,28.70
2018-10-21T17:55:15.571Z,28.60
2018-10-21T17:57:48.964Z,28.62
2018-10-21T18:00:22.405Z,28.40
2018-10-21T18:02:55.840Z,28.17
2018-10-21T18:05:29.284Z,28.47
2018-10-21T18:08:02.683Z,28.52
2018-10-21T18:10:36.132Z,28.45
2018-10-21T18:13:10.663Z,28.70
2018-10-21T18:15:43.975Z,28.32
2018-10-21T18:18:17.451Z,28.15
2018-10-21T18:20:50.851Z,27.98
2018-10-21T18:23:24.239Z,28.12
2018-10-21T18:25:57.696Z,28.27
2018-10-21T18:28:31.148Z,28.23
2018-10-21T18:31:04.663Z,28.10
2018-10-21T18:33:38.036Z,28.30
2018-10-21T18:36:11.444Z,28.17
2018-10-21T18:38:44.880Z,28.17
2018-10-21T18:41:18.664Z,28.38
2018-10-21T18:43:52.164Z,27.95
2018-10-21T18:46:25.574Z,28.20
2018-10-21T18:49:01.104Z,27.87
2018-10-21T18:51:34.512Z,27.75
2018-10-21T18:54:07.935Z,28.02
2018-10-21T18:56:41.652Z,27.50
2018-10-21T18:59:15.063Z,28.10
2018-10-21T19:01:48.480Z,29.95
2018-10-21T19:04:21.884Z,29.77
2018-10-21T19:06:55.314Z,29.87
2018-10-21T19:09:30.797Z,30.00
2018-10-21T19:12:04.251Z,30.10
2018-10-21T19:14:37.643Z,29.55
2018-10-21T19:17:11.043Z,29.55
2018-10-21T19:19:44.423Z,29.65
2018-10-21T19:22:17.896Z,29.10
2018-10-21T19:24:51.264Z,30.03
2018-10-21T19:27:24.704Z,29.13
2018-10-21T19:29:58.164Z,29.63
2018-10-21T19:32:31.572Z,29.13
2018-10-21T19:35:05.384Z,28.92
2018-10-21T19:37:38.968Z,28.70
2018-10-21T19:40:14.506Z,29.23
2018-10-21T19:42:47.973Z,28.47
2018-10-21T19:45:21.342Z,28.67
2018-10-21T19:47:54.854Z,28.30
2018-10-21T19:50:28.268Z,28.27
2018-10-21T19:53:01.684Z,28.17
2018-10-21T19:55:35.069Z,28.30
2018-10-21T19:58:08.495Z,28.33
2018-10-21T20:00:41.871Z,29.17
2018-10-21T20:03:15.340Z,28.90
2018-10-21T20:05:48.775Z,28.90
2018-10-21T20:08:22.240Z,28.77
2018-10-21T20:10:55.730Z,29.27
2018-10-21T20:13:29.112Z,28.70
2018-10-21T20:16:02.533Z,28.83
2018-10-21T20:18:37.008Z,28.53
2018-10-21T20:21:10.481Z,28.80
2018-10-21T20:23:43.867Z,28.47
2018-10-21T20:26:17.360Z,28.23
2018-10-21T20:28:50.747Z,28.33
2018-10-21T20:31:24.385Z,29.07
2018-10-21T20:33:57.786Z,28.23
2018-10-21T20:36:31.254Z,28.63
2018-10-21T20:39:07.144Z,28.03
2018-10-21T20:41:40.588Z,29.27
2018-10-21T20:44:13.989Z,28.87
2018-10-21T20:46:47.426Z,28.40
2018-10-21T20:49:20.872Z,28.50
2018-10-21T20:51:54.312Z,28.20
2018-10-21T20:54:33.129Z,28.97
2018-10-21T20:57:09.676Z,28.30
2018-10-21T20:59:44.234Z,28.73
2018-10-21T21:02:17.665Z,28.60
2018-10-21T21:04:51.061Z,27.53
2018-10-21T21:07:24.556Z,28.17
2018-10-21T21:09:58.084Z,27.60
2018-10-21T21:12:31.482Z,28.17
2018-10-21T21:15:05.612Z,27.97
2018-10-21T21:17:39.091Z,27.87
2018-10-21T21:20:12.492Z,28.03
2018-10-21T21:22:45.924Z,27.90
2018-10-21T21:25:19.384Z,27.93
2018-10-21T21:27:52.812Z,28.93
2018-10-21T21:30:26.265Z,28.17
2018-10-21T21:32:59.665Z,29.00
2018-10-21T21:35:33.176Z,28.63
2018-10-21T21:38:06.606Z,28.67
2018-10-21T21:40:39.975Z,28.03
2018-10-21T21:43:13.373Z,28.70
2018-10-21T21:45:46.769Z,29.00
2018-10-21T21:48:20.231Z,27.90
2018-10-21T21:50:53.607Z,28.20
2018-10-21T21:53:27.000Z,28.10
2018-10-21T21:56:00.445Z,27.93
2018-10-21T21:58:33.852Z,27.97
2018-10-21T22:01:07.331Z,28.27
2018-10-21T22:03:40.731Z,27.60
2018-10-21T22:06:14.264Z,28.03
2018-10-21T22:08:47.547Z,27.93
2018-10-21T22:11:20.944Z,27.90
2018-10-21T22:13:54.363Z,27.97
2018-10-21T22:16:27.803Z,27.40
2018-10-21T22:19:01.209Z,27.80
2018-10-21T22:21:34.879Z,28.10
2018-10-21T22:24:09.785Z,27.73
2018-10-21T22:26:43.186Z,27.43
2018-10-21T22:29:16.616Z,27.77
2018-10-21T22:31:50.061Z,27.80
2018-10-21T22:34:23.508Z,27.80
2018-10-21T22:36:56.936Z,27.50
2018-10-21T22:39:33.788Z,28.13
2018-10-21T22:42:07.253Z,27.97
2018-10-21T22:44:40.611Z,27.93
2018-10-21T22:47:14.018Z,27.40
2018-10-21T22:49:47.417Z,27.27
2018-10-21T22:52:20.906Z,27.30
2018-10-21T22:54:54.284Z,27.37
2018-10-21T22:57:27.683Z,27.33
2018-10-21T23:00:01.177Z,27.50
2018-10-21T23:02:34.591Z,28.27
2018-10-21T23:05:08.451Z,27.67
2018-10-21T23:07:41.855Z,27.97
2018-10-21T23:10:15.379Z,27.60
2018-10-21T23:12:48.726Z,28.03
2018-10-21T23:15:22.148Z,27.73
2018-10-21T23:17:55.633Z,27.30
2018-10-21T23:20:28.999Z,28.13
2018-10-21T23:23:02.405Z,28.30
2018-10-21T23:25:35.776Z,27.80
2018-10-21T23:28:09.289Z,28.87
2018-10-21T23:30:42.675Z,28.60
2018-10-21T23:33:16.100Z,28.10
2018-10-21T23:35:49.471Z,28.17
2018-10-21T23:38:22.911Z,28.30
2018-10-21T23:40:57.373Z,28.80
2018-10-21T23:43:30.767Z,28.40
2018-10-21T23:46:04.241Z,28.40
2018-10-21T23:48:37.659Z,28.03
2018-10-21T23:51:11.051Z,28.07
2018-10-21T23:53:44.443Z,28.50
2018-10-21T23:56:17.875Z,28.03
2018-10-21T23:58:51.276Z,27.60
